createdAt,value
2022-08-17T00:02:26.275Z,80.15
2022-08-17T00:04:54.089Z,80.33
2022-08-17T00:07:20.715Z,80.00
2022-08-17T00:09:47.457Z,80.44
2022-08-17T00:12:43.786Z,80.02
2022-08-17T00:15:00.977Z,80.37
2022-08-17T00:17:28.148Z,81.11
2022-08-17T00:19:54.871Z,80.84
2022-08-17T00:22:32.650Z,81.71
2022-08-17T00:25:09.166Z,81.75
2022-08-17T00:27:37.050Z,82.74
2022-08-17T00:30:05.804Z,83.01
2022-08-17T00:33:14.306Z,83.73
2022-08-17T00:35:31.980Z,83.64
2022-08-17T00:37:58.618Z,83.99
2022-08-17T00:40:25.301Z,85.79
2022-08-17T00:42:53.589Z,86.54
2022-08-17T00:45:21.060Z,87.64
2022-08-17T00:47:48.659Z,89.19
2022-08-17T00:50:18.849Z,89.64
2022-08-17T00:52:54.603Z,89.70
2022-08-17T00:55:22.597Z,89.29
2022-08-17T00:57:55.550Z,88.90
2022-08-17T01:00:30.116Z,89.36
2022-08-17T01:03:10.388Z,91.28
2022-08-17T01:05:42.295Z,91.20
2022-08-17T01:08:12.942Z,91.91
2022-08-17T01:10:58.588Z,92.26
2022-08-17T01:13:32.831Z,93.95
2022-08-17T01:16:06.525Z,93.44
2022-08-17T01:18:34.586Z,93.17
2022-08-17T01:21:07.897Z,94.12
2022-08-17T01:23:34.712Z,93.92
2022-08-17T01:26:03.270Z,93.28
2022-08-17T01:28:52.785Z,92.94
2022-08-17T01:31:19.505Z,92.46
2022-08-17T01:33:46.157Z,93.39
2022-08-17T01:36:12.813Z,95.04
2022-08-17T01:38:40.417Z,95.44
2022-08-17T01:41:12.474Z,95.33
2022-08-17T01:44:02.341Z,93.88
2022-08-17T01:46:33.807Z,93.24
2022-08-17T01:49:01.336Z,93.36
2022-08-17T01:51:33.091Z,93.99
2022-08-17T01:54:05.375Z,93.85
2022-08-17T01:56:34.122Z,93.40
2022-08-17T01:59:00.654Z,93.58
2022-08-17T02:01:30.631Z,93.64
2022-08-17T02:04:01.081Z,94.58
2022-08-17T02:06:53.090Z,94.37
2022-08-17T02:09:25.291Z,93.68
2022-08-17T02:11:54.098Z,94.55
2022-08-17T02:14:21.038Z,95.67
2022-08-17T02:16:47.642Z,94.49
2022-08-17T02:19:15.995Z,94.16
2022-08-17T02:21:44.952Z,94.11
2022-08-17T02:24:15.716Z,94.63
2022-08-17T02:26:42.567Z,94.14
2022-08-17T02:29:09.236Z,93.20
2022-08-17T02:31:35.851Z,93.90
2022-08-17T02:34:04.965Z,95.46
2022-08-17T02:36:34.040Z,96.06
2022-08-17T02:39:03.301Z,96.32
2022-08-17T02:41:29.965Z,96.00
2022-08-17T02:43:56.576Z,96.43
2022-08-17T02:46:23.160Z,96.78
2022-08-17T02:48:49.808Z,97.10
2022-08-17T02:51:16.466Z,97.45
2022-08-17T02:53:43.157Z,97.20
2022-08-17T02:56:09.973Z,97.10
2022-08-17T02:58:36.736Z,97.79
2022-08-17T03:01:06.209Z,96.95
2022-08-17T03:03:32.741Z,96.86
2022-08-17T03:05:59.279Z,96.53
2022-08-17T03:08:25.977Z,96.24
2022-08-17T03:10:52.900Z,97.09
2022-08-17T03:13:20.333Z,96.78
2022-08-17T03:15:48.555Z,97.38
2022-08-17T03:18:25.110Z,97.86
2022-08-17T03:20:59.152Z,98.71
2022-08-17T03:23:27.445Z,100.00
2022-08-17T03:25:55.589Z,100.00
2022-08-17T03:28:23.740Z,100.00
2022-08-17T03:30:51.432Z,99.50
2022-08-17T03:33:19.077Z,99.67
2022-08-17T03:35:46.218Z,99.71
2022-08-17T03:38:15.085Z,98.99
2022-08-17T03:40:56.594Z,100.00
2022-08-17T03:43:25.395Z,100.00
2022-08-17T03:46:27.312Z,100.00
2022-08-17T03:49:15.173Z,100.00
2022-08-17T03:52:00.344Z,100.00
2022-08-17T03:54:45.543Z,99.69
2022-08-17T03:57:12.715Z,99.07
2022-08-17T03:59:41.161Z,100.00
2022-08-17T04:02:25.006Z,100.00
2022-08-17T04:04:52.478Z,100.00
2022-08-17T04:07:21.677Z,99.66
2022-08-17T04:09:48.503Z,99.25
2022-08-17T04:12:20.551Z,100.00
2022-08-17T04:14:53.245Z,100.00
2022-08-17T04:17:24.992Z,99.64
2022-08-17T04:19:51.799Z,98.76
2022-08-17T04:22:30.481Z,97.89
2022-08-17T04:25:18.166Z,97.56
2022-08-17T04:27:44.790Z,96.87
2022-08-17T04:30:12.553Z,96.45
2022-08-17T04:33:04.151Z,96.80
2022-08-17T04:35:42.738Z,96.85
2022-08-17T04:38:12.186Z,97.13
2022-08-17T04:40:58.225Z,98.01
2022-08-17T04:43:29.962Z,98.66
2022-08-17T04:46:02.763Z,97.91
2022-08-17T04:48:36.617Z,97.89
2022-08-17T04:51:07.844Z,97.60
2022-08-17T04:53:34.616Z,97.56
2022-08-17T04:56:01.220Z,97.50
2022-08-17T04:58:28.481Z,97.69
2022-08-17T05:00:55.325Z,96.82
2022-08-17T05:03:21.889Z,97.40
2022-08-17T05:05:49.990Z,97.28
2022-08-17T05:08:19.426Z,96.03
2022-08-17T05:10:47.498Z,96.04
2022-08-17T05:13:20.762Z,95.93
2022-08-17T05:15:49.606Z,96.63
2022-08-17T05:18:16.931Z,96.25
2022-08-17T05:20:44.449Z,97.21
2022-08-17T05:23:15.078Z,96.41
2022-08-17T05:25:47.768Z,96.23
2022-08-17T05:28:16.924Z,94.73
2022-08-17T05:30:49.232Z,93.27
2022-08-17T05:33:23.158Z,92.92
2022-08-17T05:35:51.753Z,92.39
2022-08-17T05:38:20.000Z,91.65
2022-08-17T05:40:47.405Z,91.05
2022-08-17T05:43:18.118Z,89.83
2022-08-17T05:45:56.655Z,88.90
2022-08-17T05:48:39.479Z,87.71
2022-08-17T05:51:15.441Z,86.32
2022-08-17T05:53:55.549Z,85.00
2022-08-17T05:56:31.134Z,83.79
2022-08-17T05:59:09.296Z,81.87
2022-08-17T06:01:44.221Z,81.36
2022-08-17T06:04:42.912Z,79.14
2022-08-17T06:07:17.221Z,77.25
2022-08-17T06:09:54.219Z,76.44
2022-08-17T06:12:26.568Z,74.89
2022-08-17T06:15:05.429Z,73.26
2022-08-17T06:17:32.459Z,72.52
2022-08-17T06:20:03.675Z,71.70
2022-08-17T06:22:38.007Z,72.13
2022-08-17T06:25:10.281Z,71.36
2022-08-17T06:27:43.207Z,71.02
2022-08-17T06:30:25.983Z,70.07
2022-08-17T06:32:55.306Z,68.59
2022-08-17T06:35:34.027Z,67.74
2022-08-17T06:38:38.270Z,67.45
2022-08-17T06:41:13.874Z,66.68
2022-08-17T06:43:47.878Z,66.31
2022-08-17T06:46:30.840Z,65.70
2022-08-17T06:49:17.434Z,64.76
2022-08-17T06:51:51.764Z,66.24
2022-08-17T06:54:37.195Z,65.76
2022-08-17T06:57:32.277Z,65.61
2022-08-17T07:00:13.315Z,66.48
2022-08-17T07:03:08.188Z,66.92
2022-08-17T07:06:03.318Z,66.69
2022-08-17T07:08:38.201Z,64.97
2022-08-17T07:11:14.649Z,63.76
2022-08-17T07:14:06.584Z,62.73
2022-08-17T07:16:41.916Z,61.00
2022-08-17T07:19:10.836Z,60.74
2022-08-17T07:21:48.731Z,60.40
2022-08-17T07:24:47.397Z,60.94
2022-08-17T07:27:37.248Z,60.16
2022-08-17T07:30:11.643Z,59.54
2022-08-17T07:32:46.029Z,58.54
2022-08-17T07:35:17.394Z,58.28
2022-08-17T07:38:24.245Z,56.71
2022-08-17T07:40:57.850Z,56.07
2022-08-17T07:43:33.065Z,54.75
2022-08-17T07:46:24.143Z,55.31
2022-08-17T07:48:55.032Z,54.40
2022-08-17T07:51:28.588Z,54.48
2022-08-17T07:54:22.514Z,54.79
2022-08-17T07:56:55.243Z,54.24
2022-08-17T07:59:33.983Z,53.29
2022-08-17T08:02:05.402Z,53.00
2022-08-17T08:07:32.081Z,51.16
2022-08-17T08:10:12.508Z,51.94
2022-08-17T08:12:53.654Z,50.50
2022-08-17T08:15:33.606Z,50.62
2022-08-17T08:18:03.347Z,50.37
2022-08-17T08:20:53.898Z,50.88
2022-08-17T08:23:33.486Z,49.11
2022-08-17T08:26:31.095Z,49.91
2022-08-17T08:29:28.406Z,50.26
2022-08-17T08:32:10.222Z,49.88
2022-08-17T08:35:03.691Z,48.72
2022-08-17T08:37:58.431Z,48.63
2022-08-17T08:40:40.175Z,48.70
2022-08-17T08:43:22.591Z,48.62
2022-08-17T08:45:56.755Z,47.74
2022-08-17T08:48:58.019Z,48.94
2022-08-17T08:51:36.344Z,48.06
2022-08-17T08:54:26.863Z,47.14
2022-08-17T09:00:02.072Z,47.25
2022-08-17T09:02:43.538Z,47.20
2022-08-17T09:05:28.819Z,46.54
2022-08-17T09:08:07.752Z,44.58
2022-08-17T09:10:40.779Z,44.94
2022-08-17T09:13:16.372Z,45.46
2022-08-17T09:15:47.443Z,44.54
2022-08-17T09:19:00.841Z,44.28
2022-08-17T09:21:22.608Z,43.71
2022-08-17T09:24:04.909Z,42.73
2022-08-17T09:26:40.993Z,43.97
2022-08-17T09:29:12.586Z,43.19
2022-08-17T09:31:52.643Z,43.00
2022-08-17T09:34:32.119Z,42.13
2022-08-17T09:37:25.947Z,42.25
2022-08-17T09:40:09.671Z,41.63
2022-08-17T09:42:45.772Z,42.10
2022-08-17T09:45:39.080Z,42.64
2022-08-17T09:48:18.440Z,41.58
2022-08-17T09:51:07.355Z,41.42
2022-08-17T09:53:38.176Z,41.72
2022-08-17T09:56:24.230Z,41.23
2022-08-17T09:59:14.097Z,40.74
2022-08-17T10:01:55.780Z,40.76
2022-08-17T10:04:29.896Z,41.04
2022-08-17T10:07:19.046Z,40.57
2022-08-17T10:10:03.802Z,40.41
2022-08-17T10:12:47.157Z,40.16
2022-08-17T10:15:52.347Z,38.91
2022-08-17T10:19:05.512Z,39.71
2022-08-17T10:22:00.664Z,40.33
2022-08-17T10:25:21.331Z,40.63
2022-08-17T10:27:52.264Z,40.20
2022-08-17T10:30:22.472Z,40.89
2022-08-17T10:32:55.145Z,40.75
2022-08-17T10:35:35.684Z,40.03
2022-08-17T10:38:27.784Z,40.43
2022-08-17T10:40:57.897Z,38.99
2022-08-17T10:43:34.082Z,39.56
2022-08-17T10:46:31.389Z,40.13
2022-08-17T10:49:16.794Z,40.32
2022-08-17T10:51:49.344Z,40.32
2022-08-17T10:54:25.069Z,39.40
2022-08-17T10:56:53.837Z,38.52
2022-08-17T10:59:35.584Z,37.94
2022-08-17T11:02:05.064Z,38.12
2022-08-17T11:04:50.364Z,38.61
2022-08-17T11:07:39.828Z,39.20
2022-08-17T11:10:46.470Z,38.93
2022-08-17T11:13:38.796Z,38.28
2022-08-17T11:16:28.527Z,38.58
2022-08-17T11:19:18.766Z,38.25
2022-08-17T11:22:12.917Z,38.94
2022-08-17T11:24:44.671Z,39.25
2022-08-17T11:27:24.890Z,40.62
2022-08-17T11:30:15.103Z,40.91
2022-08-17T11:32:53.007Z,40.71
2022-08-17T11:35:21.591Z,40.02
2022-08-17T11:38:16.127Z,38.93
2022-08-17T11:41:03.585Z,38.55
2022-08-17T11:44:08.076Z,38.45
2022-08-17T11:47:20.913Z,38.06
2022-08-17T11:50:28.014Z,39.13
2022-08-17T11:52:55.392Z,38.91
2022-08-17T11:55:39.415Z,38.84
2022-08-17T11:58:30.161Z,38.00
2022-08-17T12:01:00.951Z,38.20
2022-08-17T12:03:33.498Z,37.34
2022-08-17T12:06:11.297Z,37.21
2022-08-17T12:08:45.760Z,37.42
2022-08-17T12:12:04.626Z,37.36
2022-08-17T12:14:11.613Z,37.26
2022-08-17T12:16:43.863Z,37.75
2022-08-17T12:19:21.164Z,37.83
2022-08-17T12:22:12.558Z,37.51
2022-08-17T12:24:56.865Z,37.19
2022-08-17T12:28:04.475Z,36.97
2022-08-17T12:30:22.595Z,37.72
2022-08-17T12:32:50.141Z,37.40
2022-08-17T12:35:29.647Z,37.52
2022-08-17T12:38:00.636Z,38.06
2022-08-17T12:40:32.427Z,37.17
2022-08-17T12:43:02.001Z,35.87
2022-08-17T12:45:31.991Z,35.95
2022-08-17T12:48:07.860Z,36.95
2022-08-17T12:50:37.193Z,38.14
2022-08-17T12:53:10.092Z,38.86
2022-08-17T12:55:38.967Z,39.18
2022-08-17T12:58:10.935Z,39.65
2022-08-17T13:00:47.545Z,39.33
2022-08-17T13:03:23.514Z,38.61
2022-08-17T13:05:53.194Z,37.92
2022-08-17T13:08:41.232Z,37.33
2022-08-17T13:11:18.739Z,37.63
2022-08-17T13:13:54.776Z,38.60
2022-08-17T13:16:27.879Z,37.87
2022-08-17T13:19:18.146Z,38.48
2022-08-17T13:21:59.412Z,38.83
2022-08-17T13:24:38.293Z,38.90
2022-08-17T13:27:08.874Z,39.41
2022-08-17T13:29:38.703Z,39.17
2022-08-17T13:32:12.917Z,39.60
2022-08-17T13:35:12.921Z,39.74
2022-08-17T13:37:36.615Z,39.81
2022-08-17T13:40:23.168Z,40.51
2022-08-17T13:42:54.459Z,40.48
2022-08-17T13:45:35.551Z,40.50
2022-08-17T13:48:13.542Z,40.90
2022-08-17T13:50:43.748Z,40.61
2022-08-17T13:53:23.230Z,41.32
2022-08-17T13:55:56.326Z,40.74
2022-08-17T13:58:27.929Z,41.67
2022-08-17T14:00:56.315Z,41.48
2022-08-17T14:03:24.131Z,41.40
2022-08-17T14:05:52.589Z,41.39
2022-08-17T14:08:20.879Z,41.01
2022-08-17T14:10:58.779Z,41.11
2022-08-17T14:13:25.426Z,41.60
2022-08-17T14:15:54.002Z,41.36
2022-08-17T14:18:55.722Z,41.65
2022-08-17T14:21:10.636Z,41.02
2022-08-17T14:23:37.875Z,41.73
2022-08-17T14:26:05.112Z,41.24
2022-08-17T14:28:31.963Z,41.53
2022-08-17T14:31:00.253Z,41.29
2022-08-17T14:33:28.765Z,41.81
2022-08-17T14:35:55.986Z,41.85
2022-08-17T14:38:22.793Z,42.32
2022-08-17T14:40:49.762Z,42.21
2022-08-17T14:43:16.561Z,42.23
2022-08-17T14:45:43.527Z,42.31
2022-08-17T14:48:10.668Z,42.78
2022-08-17T14:50:41.041Z,42.02
2022-08-17T14:53:13.718Z,42.73
2022-08-17T14:55:40.571Z,42.72
2022-08-17T14:58:09.095Z,42.86
2022-08-17T15:00:36.185Z,42.51
2022-08-17T15:03:03.740Z,42.63
2022-08-17T15:05:34.341Z,43.28
2022-08-17T15:08:02.401Z,44.94
2022-08-17T15:10:30.258Z,45.90
2022-08-17T15:12:57.533Z,46.65
2022-08-17T15:15:24.355Z,47.27
2022-08-17T15:17:51.788Z,47.69
2022-08-17T15:20:28.266Z,47.71
2022-08-17T15:22:56.295Z,48.53
2022-08-17T15:25:28.780Z,48.77
2022-08-17T15:27:56.206Z,48.17
2022-08-17T15:30:23.693Z,49.36
2022-08-17T15:32:55.000Z,48.76
2022-08-17T15:35:27.749Z,49.38
2022-08-17T15:38:08.029Z,49.52
2022-08-17T15:40:39.386Z,49.07
2022-08-17T15:43:08.147Z,49.26
2022-08-17T15:45:35.370Z,49.90
2022-08-17T15:48:02.343Z,50.39
2022-08-17T15:50:29.119Z,50.02
2022-08-17T15:53:00.693Z,50.41
2022-08-17T15:55:29.859Z,50.51
2022-08-17T15:57:56.822Z,50.77
2022-08-17T16:00:28.476Z,50.99
2022-08-17T16:03:22.921Z,51.61
2022-08-17T16:05:43.395Z,50.73
2022-08-17T16:08:11.240Z,51.44
2022-08-17T16:10:37.945Z,51.62
2022-08-17T16:13:04.802Z,51.61
2022-08-17T16:15:32.049Z,51.34
2022-08-17T16:17:59.194Z,51.46
2022-08-17T16:20:26.118Z,50.92
2022-08-17T16:22:54.449Z,51.59
2022-08-17T16:25:50.327Z,51.15
2022-08-17T16:28:12.315Z,51.49
2022-08-17T16:30:39.036Z,51.39
2022-08-17T16:33:06.003Z,51.09
2022-08-17T16:35:33.762Z,51.15
2022-08-17T16:38:01.065Z,51.50
2022-08-17T16:40:29.634Z,51.52
2022-08-17T16:43:02.394Z,51.53
2022-08-17T16:45:36.468Z,51.98
2022-08-17T16:48:03.702Z,51.53
2022-08-17T16:50:32.085Z,51.83
2022-08-17T16:53:09.220Z,52.00
2022-08-17T16:55:37.019Z,51.85
2022-08-17T16:58:04.894Z,52.51
2022-08-17T17:00:33.525Z,52.38
2022-08-17T17:03:19.163Z,52.89
2022-08-17T17:06:14.629Z,53.18
2022-08-17T17:08:48.581Z,52.90
2022-08-17T17:11:45.643Z,53.43
2022-08-17T17:14:42.183Z,53.74
2022-08-17T17:17:26.771Z,53.63
2022-08-17T17:20:05.930Z,54.00
2022-08-17T17:22:54.818Z,54.29
2022-08-17T17:25:21.419Z,54.43
2022-08-17T17:28:00.054Z,54.30
2022-08-17T17:30:37.334Z,54.68
2022-08-17T17:33:09.497Z,54.45
2022-08-17T17:35:46.858Z,54.30
2022-08-17T17:38:23.685Z,54.72
2022-08-17T17:41:05.681Z,55.93
2022-08-17T17:43:39.808Z,56.12
2022-08-17T17:46:29.146Z,57.40
2022-08-17T17:48:57.529Z,57.79
2022-08-17T17:52:02.807Z,58.59
2022-08-17T17:54:43.819Z,57.79
2022-08-17T17:57:24.980Z,58.69
2022-08-17T18:00:23.695Z,58.64
2022-08-17T18:03:27.434Z,58.91
2022-08-17T18:06:16.400Z,58.30
2022-08-17T18:09:24.526Z,57.71
2022-08-17T18:12:17.212Z,59.25
2022-08-17T18:14:55.559Z,59.19
2022-08-17T18:17:22.347Z,59.65
2022-08-17T18:19:48.933Z,59.49
2022-08-17T18:22:20.834Z,60.26
2022-08-17T18:24:54.089Z,59.57
2022-08-17T18:27:49.659Z,60.13
2022-08-17T18:30:19.533Z,61.09
2022-08-17T18:32:49.551Z,60.79
2022-08-17T18:35:19.106Z,60.46
2022-08-17T18:38:17.985Z,61.17
2022-08-17T18:40:48.295Z,61.41
2022-08-17T18:43:28.536Z,62.35
2022-08-17T18:46:28.837Z,62.68
2022-08-17T18:48:59.218Z,63.55
2022-08-17T18:51:42.719Z,63.96
2022-08-17T18:54:21.939Z,65.20
2022-08-17T18:56:52.264Z,65.52
2022-08-17T18:59:41.664Z,65.27
2022-08-17T19:02:20.717Z,65.04
2022-08-17T19:04:59.430Z,64.33
2022-08-17T19:07:34.890Z,63.76
2022-08-17T19:10:28.410Z,63.82
2022-08-17T19:13:01.707Z,64.35
2022-08-17T19:16:22.306Z,65.01
2022-08-17T19:18:56.248Z,65.15
2022-08-17T19:21:34.728Z,65.80
2022-08-17T19:24:27.422Z,67.51
2022-08-17T19:27:19.606Z,67.66
2022-08-17T19:30:07.769Z,69.20
2022-08-17T19:32:35.866Z,69.36
2022-08-17T19:35:06.225Z,69.76
2022-08-17T19:37:46.426Z,70.41
2022-08-17T19:40:51.891Z,70.63
2022-08-17T19:43:54.184Z,71.17
2022-08-17T19:47:00.761Z,70.53
2022-08-17T19:49:57.156Z,70.08
2022-08-17T19:52:46.890Z,70.35
2022-08-17T19:55:22.209Z,70.03
2022-08-17T19:58:10.396Z,70.26
2022-08-17T20:00:50.517Z,71.60
2022-08-17T20:03:27.305Z,72.38
2022-08-17T20:06:12.499Z,71.57
2022-08-17T20:08:53.858Z,71.21
2022-08-17T20:11:26.090Z,71.00
2022-08-17T20:14:19.295Z,71.72
2022-08-17T20:16:46.431Z,71.56
2022-08-17T20:19:24.303Z,72.66
2022-08-17T20:22:04.229Z,72.88
2022-08-17T20:24:48.315Z,71.68
2022-08-17T20:27:31.741Z,71.51
2022-08-17T20:30:06.658Z,71.55
2022-08-17T20:32:48.862Z,71.89
2022-08-17T20:35:16.856Z,73.03
2022-08-17T20:37:52.867Z,72.81
2022-08-17T20:40:24.315Z,73.40
2022-08-17T20:42:50.926Z,74.59
2022-08-17T20:45:26.505Z,74.53
2022-08-17T20:51:09.658Z,74.16
2022-08-17T20:53:48.437Z,72.71
2022-08-17T20:56:48.927Z,73.42
2022-08-17T20:59:22.436Z,73.64
2022-08-17T21:02:18.057Z,73.63
2022-08-17T21:05:00.196Z,74.68
2022-08-17T21:07:42.954Z,76.04
2022-08-17T21:10:19.643Z,76.16
2022-08-17T21:13:07.439Z,76.08
2022-08-17T21:15:54.296Z,75.92
2022-08-17T21:18:44.671Z,75.77
2022-08-17T21:21:24.301Z,75.54
2022-08-17T21:23:57.489Z,75.83
2022-08-17T21:26:51.172Z,75.48
2022-08-17T21:29:31.046Z,74.44
2022-08-17T21:31:59.328Z,74.49
2022-08-17T21:34:33.149Z,75.21
2022-08-17T21:37:18.864Z,75.96
2022-08-17T21:39:54.050Z,75.82
2022-08-17T21:42:34.500Z,75.60
2022-08-17T21:45:17.992Z,74.41
2022-08-17T21:47:50.576Z,74.89
2022-08-17T21:50:24.438Z,75.51
2022-08-17T21:52:56.234Z,75.25
2022-08-17T21:55:28.331Z,76.44
2022-08-17T21:58:12.224Z,77.33
2022-08-17T22:00:41.102Z,78.79
2022-08-17T22:03:23.911Z,78.89
2022-08-17T22:05:51.623Z,79.13
2022-08-17T22:08:22.489Z,79.59
2022-08-17T22:10:51.340Z,80.50
2022-08-17T22:13:17.961Z,80.12
2022-08-17T22:16:15.701Z,80.14
2022-08-17T22:18:58.140Z,80.68
2022-08-17T22:21:25.422Z,79.91
2022-08-17T22:24:06.887Z,79.87
2022-08-17T22:27:07.710Z,78.98
2022-08-17T22:29:43.039Z,77.98
2022-08-17T22:32:09.898Z,78.25
2022-08-17T22:34:38.690Z,77.94
2022-08-17T22:37:29.024Z,77.50
2022-08-17T22:39:59.605Z,77.81
2022-08-17T22:42:26.409Z,78.58
2022-08-17T22:44:54.103Z,79.00
2022-08-17T22:47:40.993Z,78.97
2022-08-17T22:50:21.760Z,78.62
2022-08-17T22:53:17.069Z,78.72
2022-08-17T22:56:15.197Z,77.83
2022-08-17T22:59:10.711Z,77.54
2022-08-17T23:01:39.264Z,78.53
2022-08-17T23:04:09.793Z,79.94
2022-08-17T23:06:38.861Z,80.76
2022-08-17T23:09:07.170Z,81.68
2022-08-17T23:11:48.754Z,82.38
2022-08-17T23:14:18.576Z,81.76
2022-08-17T23:16:45.749Z,81.55
2022-08-17T23:19:16.100Z,81.58
2022-08-17T23:21:45.142Z,80.98
2022-08-17T23:24:17.840Z,80.57
2022-08-17T23:26:44.512Z,79.93
2022-08-17T23:29:11.001Z,79.08
2022-08-17T23:31:39.364Z,78.82
2022-08-17T23:34:11.732Z,78.40
2022-08-17T23:36:38.395Z,79.15
2022-08-17T23:39:06.547Z,78.58
2022-08-17T23:41:38.537Z,78.93
2022-08-17T23:44:06.534Z,78.92
2022-08-17T23:46:33.136Z,78.74
2022-08-17T23:49:00.534Z,79.13
2022-08-17T23:51:31.549Z,79.14
2022-08-17T23:54:07.684Z,79.31
2022-08-17T23:56:41.949Z,79.02
2022-08-17T23:59:08.533Z,79.24
